createdAt,value
2022-09-27T00:01:40.722Z,9.39
2022-09-27T00:04:30.187Z,9.49
2022-09-27T00:07:18.310Z,9.54
2022-09-27T00:10:07.300Z,9.49
2022-09-27T00:12:55.733Z,9.48
2022-09-27T00:15:43.780Z,9.46
2022-09-27T00:18:32.937Z,9.47
2022-09-27T00:21:22.331Z,9.53
2022-09-27T00:24:13.436Z,9.52
2022-09-27T00:27:01.477Z,9.56
2022-09-27T00:29:49.789Z,9.55
2022-09-27T00:32:37.889Z,9.50
2022-09-27T00:35:25.935Z,9.57
2022-09-27T00:38:15.669Z,9.50
2022-09-27T00:41:03.858Z,9.52
2022-09-27T00:43:54.227Z,9.56
2022-09-27T00:46:47.404Z,9.53
2022-09-27T00:49:40.932Z,9.59
2022-09-27T00:52:34.227Z,9.58
2022-09-27T00:55:27.591Z,9.51
2022-09-27T00:58:19.623Z,9.60
2022-09-27T01:01:10.712Z,9.68
2022-09-27T01:04:04.821Z,9.62
2022-09-27T01:06:52.978Z,9.65
2022-09-27T01:09:41.615Z,9.66
2022-09-27T01:12:43.470Z,9.67
2022-09-27T01:15:41.090Z,9.56
2022-09-27T01:18:35.891Z,9.66
2022-09-27T01:21:38.480Z,9.70
2022-09-27T01:24:47.142Z,9.71
2022-09-27T01:28:10.667Z,9.66
2022-09-27T01:31:05.225Z,9.62
2022-09-27T01:34:03.618Z,9.66
2022-09-27T01:36:57.447Z,9.72
2022-09-27T01:39:53.081Z,9.59
2022-09-27T01:43:00.167Z,9.69
2022-09-27T01:45:56.615Z,9.63
2022-09-27T01:49:27.539Z,9.68
2022-09-27T01:52:19.782Z,9.67
2022-09-27T01:55:15.483Z,9.63
2022-09-27T01:58:28.396Z,9.70
2022-09-27T02:01:22.345Z,9.70
2022-09-27T02:04:18.412Z,9.65
2022-09-27T02:07:33.130Z,9.75
2022-09-27T02:10:24.684Z,9.70
2022-09-27T02:13:20.136Z,9.73
2022-09-27T02:16:23.653Z,9.66
2022-09-27T02:19:19.599Z,9.54
2022-09-27T02:22:16.250Z,9.59
2022-09-27T02:25:14.648Z,9.59
2022-09-27T02:28:11.673Z,9.62
2022-09-27T02:31:00.031Z,9.65
2022-09-27T02:33:59.096Z,9.56
2022-09-27T02:36:48.258Z,9.63
2022-09-27T02:39:36.481Z,9.64
2022-09-27T02:42:29.416Z,9.68
2022-09-27T02:45:19.658Z,9.65
2022-09-27T02:48:20.871Z,9.64
2022-09-27T02:51:21.285Z,9.65
2022-09-27T02:54:20.436Z,9.63
2022-09-27T02:57:57.928Z,9.62
2022-09-27T03:01:12.867Z,9.59
2022-09-27T03:04:39.596Z,9.63
2022-09-27T03:07:27.851Z,9.65
2022-09-27T03:10:19.413Z,9.68
2022-09-27T03:13:09.253Z,9.63
2022-09-27T03:16:01.414Z,9.70
2022-09-27T03:19:08.259Z,9.65
2022-09-27T03:22:14.626Z,9.74
2022-09-27T03:25:02.719Z,9.71
2022-09-27T03:27:51.141Z,9.67
2022-09-27T03:30:42.023Z,9.74
2022-09-27T03:33:31.224Z,9.74
2022-09-27T03:36:20.667Z,9.71
2022-09-27T03:39:08.683Z,9.74
2022-09-27T03:41:57.343Z,9.68
2022-09-27T03:44:45.394Z,9.69
2022-09-27T03:47:34.787Z,9.68
2022-09-27T03:50:22.918Z,9.70
2022-09-27T03:53:10.955Z,9.72
2022-09-27T03:55:58.960Z,9.67
2022-09-27T03:58:47.590Z,9.60
2022-09-27T04:01:38.801Z,9.71
2022-09-27T04:04:46.273Z,9.63
2022-09-27T04:07:34.401Z,9.68
2022-09-27T04:10:22.697Z,9.63
2022-09-27T04:13:11.881Z,9.63
2022-09-27T04:16:07.972Z,9.62
2022-09-27T04:19:12.703Z,9.59
2022-09-27T04:22:11.241Z,9.57
2022-09-27T04:24:59.533Z,9.57
2022-09-27T04:27:56.692Z,9.52
2022-09-27T04:30:46.668Z,9.54
2022-09-27T04:33:34.713Z,9.55
2022-09-27T04:36:36.149Z,9.52
2022-09-27T04:39:39.578Z,9.57
2022-09-27T04:42:28.781Z,9.60
2022-09-27T04:45:17.635Z,9.62
2022-09-27T04:48:05.771Z,9.62
2022-09-27T04:51:00.489Z,9.59
2022-09-27T04:53:48.947Z,9.55
2022-09-27T04:56:38.447Z,9.59
2022-09-27T04:59:27.758Z,9.53
2022-09-27T05:02:15.787Z,9.55
2022-09-27T05:05:18.819Z,9.48
2022-09-27T05:08:06.890Z,9.45
2022-09-27T05:11:17.544Z,9.45
2022-09-27T05:17:52.422Z,9.34
2022-09-27T05:20:59.326Z,8.58
2022-09-27T05:23:57.484Z,9.39
2022-09-27T05:26:46.786Z,9.34
2022-09-27T05:29:36.489Z,9.37
2022-09-27T05:32:29.923Z,9.36
2022-09-27T05:35:44.533Z,9.32
2022-09-27T05:38:33.607Z,9.31
2022-09-27T05:41:21.678Z,9.38
2022-09-27T05:44:09.951Z,9.42
2022-09-27T05:47:06.169Z,9.47
2022-09-27T05:49:56.040Z,9.50
2022-09-27T05:52:44.145Z,9.43
2022-09-27T05:55:32.810Z,9.40
2022-09-27T05:58:21.286Z,9.43
2022-09-27T06:01:21.673Z,9.41
2022-09-27T06:04:31.399Z,9.46
2022-09-27T06:07:51.347Z,9.31
2022-09-27T06:10:47.373Z,9.29
2022-09-27T06:13:37.015Z,9.34
2022-09-27T06:16:25.067Z,9.45
2022-09-27T06:19:13.155Z,9.41
2022-09-27T06:22:02.547Z,9.42
2022-09-27T06:25:00.083Z,9.33
2022-09-27T06:27:56.842Z,9.24
2022-09-27T06:30:51.502Z,9.35
2022-09-27T06:33:59.145Z,9.29
2022-09-27T06:36:51.550Z,9.44
2022-09-27T06:39:42.436Z,9.47
2022-09-27T06:42:53.029Z,9.67
2022-09-27T06:45:57.160Z,9.70
2022-09-27T06:49:05.084Z,9.60
2022-09-27T06:51:56.663Z,9.69
2022-09-27T06:54:46.021Z,9.72
2022-09-27T06:57:51.445Z,9.76
2022-09-27T07:00:39.939Z,9.81
2022-09-27T07:03:59.755Z,9.75
2022-09-27T07:07:17.199Z,9.92
2022-09-27T07:10:10.112Z,9.88
2022-09-27T07:12:59.954Z,10.01
2022-09-27T07:15:48.060Z,10.09
2022-09-27T07:18:36.782Z,10.11
2022-09-27T07:21:25.004Z,10.02
2022-09-27T07:24:13.317Z,10.09
2022-09-27T07:27:04.124Z,10.19
2022-09-27T07:29:52.517Z,10.07
2022-09-27T07:32:40.946Z,10.12
2022-09-27T07:35:31.385Z,10.05
2022-09-27T07:38:20.674Z,10.10
2022-09-27T07:41:10.928Z,9.70
2022-09-27T07:44:00.480Z,10.04
2022-09-27T07:46:50.557Z,9.97
2022-09-27T07:49:40.613Z,9.97
2022-09-27T07:52:44.374Z,9.98
2022-09-27T07:55:53.193Z,10.02
2022-09-27T07:58:44.920Z,9.96
2022-09-27T08:01:34.605Z,10.04
2022-09-27T08:04:22.803Z,10.05
2022-09-27T08:07:14.240Z,10.05
2022-09-27T08:10:05.190Z,9.43
2022-09-27T08:12:54.393Z,10.11
2022-09-27T08:15:42.390Z,10.17
2022-09-27T08:18:32.335Z,10.16
2022-09-27T08:21:32.447Z,10.09
2022-09-27T08:24:33.006Z,10.28
2022-09-27T08:27:32.920Z,10.47
2022-09-27T08:30:23.873Z,10.66
2022-09-27T08:33:12.010Z,10.84
2022-09-27T08:36:03.362Z,10.92
2022-09-27T08:38:51.493Z,11.12
2022-09-27T08:41:48.525Z,11.05
2022-09-27T08:44:44.966Z,11.04
2022-09-27T08:47:43.538Z,11.11
2022-09-27T08:50:38.960Z,11.15
2022-09-27T08:53:34.889Z,11.09
2022-09-27T08:56:24.155Z,11.39
2022-09-27T08:59:15.702Z,11.10
2022-09-27T09:02:05.919Z,11.36
2022-09-27T09:04:58.605Z,11.49
2022-09-27T09:08:04.287Z,11.49
2022-09-27T09:11:15.980Z,11.41
2022-09-27T09:14:22.220Z,11.58
2022-09-27T09:17:22.828Z,11.72
2022-09-27T09:20:54.912Z,11.39
2022-09-27T09:24:23.951Z,11.30
2022-09-27T09:27:22.810Z,11.06
2022-09-27T09:30:22.521Z,11.16
2022-09-27T09:33:22.954Z,11.53
2022-09-27T09:36:17.221Z,11.75
2022-09-27T09:39:11.192Z,11.86
2022-09-27T09:42:08.585Z,11.74
2022-09-27T09:45:02.948Z,11.72
2022-09-27T09:47:58.351Z,11.86
2022-09-27T09:50:49.430Z,11.95
2022-09-27T09:53:43.606Z,12.41
2022-09-27T09:56:47.521Z,12.43
2022-09-27T09:59:41.226Z,12.36
2022-09-27T10:02:36.116Z,12.43
2022-09-27T10:05:30.737Z,12.14
2022-09-27T10:08:24.606Z,12.21
2022-09-27T10:11:41.043Z,12.12
2022-09-27T10:14:33.531Z,11.99
2022-09-27T10:17:34.242Z,11.55
2022-09-27T10:20:29.750Z,11.63
2022-09-27T10:23:21.076Z,11.76
2022-09-27T10:26:40.282Z,12.09
2022-09-27T10:29:37.212Z,12.19
2022-09-27T10:32:31.351Z,12.03
2022-09-27T10:35:45.262Z,12.13
2022-09-27T10:38:55.949Z,12.20
2022-09-27T10:41:51.674Z,12.46
2022-09-27T10:44:52.946Z,12.42
2022-09-27T10:47:49.129Z,12.47
2022-09-27T10:50:59.531Z,12.05
2022-09-27T10:54:20.432Z,11.96
2022-09-27T10:57:22.581Z,12.14
2022-09-27T11:00:23.595Z,12.51
2022-09-27T11:03:17.453Z,12.54
2022-09-27T11:06:28.036Z,12.24
2022-09-27T11:09:20.287Z,11.89
2022-09-27T11:12:13.192Z,12.17
2022-09-27T11:15:06.026Z,12.37
2022-09-27T11:18:04.371Z,12.61
2022-09-27T11:20:58.136Z,12.90
2022-09-27T11:24:01.073Z,12.98
2022-09-27T11:27:00.964Z,13.03
2022-09-27T11:30:08.818Z,12.48
2022-09-27T11:33:34.109Z,12.63
2022-09-27T11:36:35.633Z,13.33
2022-09-27T11:39:36.280Z,13.22
2022-09-27T11:42:41.276Z,13.76
2022-09-27T11:46:14.193Z,13.19
2022-09-27T11:49:15.154Z,12.66
2022-09-27T11:52:16.742Z,12.21
2022-09-27T11:55:32.501Z,11.81
2022-09-27T11:58:27.989Z,11.48
2022-09-27T12:01:34.657Z,11.32
2022-09-27T12:04:38.335Z,11.38
2022-09-27T12:07:37.935Z,11.69
2022-09-27T12:10:26.269Z,11.96
2022-09-27T12:13:27.055Z,12.20
2022-09-27T12:16:18.753Z,12.48
2022-09-27T12:19:18.115Z,12.76
2022-09-27T12:22:53.912Z,12.70
2022-09-27T12:25:38.718Z,13.15
2022-09-27T12:28:41.854Z,13.48
2022-09-27T12:31:35.674Z,13.81
2022-09-27T12:34:31.720Z,13.95
2022-09-27T12:37:25.144Z,14.35
2022-09-27T12:40:20.161Z,14.69
2022-09-27T12:43:18.310Z,15.17
2022-09-27T12:46:25.364Z,15.14
2022-09-27T12:49:19.434Z,14.75
2022-09-27T12:52:12.230Z,14.73
2022-09-27T12:55:24.001Z,14.52
2022-09-27T12:58:25.219Z,14.11
2022-09-27T13:01:27.097Z,13.91
2022-09-27T13:04:38.073Z,14.35
2022-09-27T13:07:52.162Z,14.50
2022-09-27T13:10:49.694Z,14.37
2022-09-27T13:13:49.143Z,14.66
2022-09-27T13:16:44.638Z,14.49
2022-09-27T13:19:43.170Z,14.28
2022-09-27T13:22:38.626Z,14.11
2022-09-27T13:25:56.018Z,13.79
2022-09-27T13:29:24.853Z,13.39
2022-09-27T13:32:20.819Z,12.99
2022-09-27T13:35:29.011Z,12.76
2022-09-27T13:38:25.186Z,12.69
2022-09-27T13:41:18.056Z,12.64
2022-09-27T13:44:32.090Z,12.46
2022-09-27T13:47:32.169Z,12.35
2022-09-27T13:50:26.979Z,12.33
2022-09-27T13:53:31.057Z,12.81
2022-09-27T13:56:49.808Z,13.03
2022-09-27T13:59:44.244Z,12.97
2022-09-27T14:03:11.031Z,13.03
2022-09-27T14:06:08.456Z,12.86
2022-09-27T14:09:00.614Z,12.69
2022-09-27T14:11:53.561Z,12.53
2022-09-27T14:14:43.294Z,12.27
2022-09-27T14:17:33.023Z,12.18
2022-09-27T14:20:38.663Z,12.17
2022-09-27T14:23:29.876Z,11.96
2022-09-27T14:26:26.141Z,11.92
2022-09-27T14:29:17.652Z,12.06
2022-09-27T14:32:09.156Z,12.05
2022-09-27T14:35:32.603Z,12.08
2022-09-27T14:38:37.037Z,11.75
2022-09-27T14:41:37.157Z,12.04
2022-09-27T14:44:28.252Z,12.10
2022-09-27T14:47:19.815Z,11.92
2022-09-27T14:50:19.938Z,11.86
2022-09-27T14:53:24.493Z,11.73
2022-09-27T14:56:17.949Z,11.77
2022-09-27T14:59:11.643Z,11.46
2022-09-27T15:02:01.729Z,11.73
2022-09-27T15:04:51.661Z,11.79
2022-09-27T15:07:40.229Z,11.72
2022-09-27T15:10:31.761Z,11.82
2022-09-27T15:13:20.728Z,11.82
2022-09-27T15:16:13.070Z,11.75
2022-09-27T15:19:03.769Z,11.35
2022-09-27T15:21:51.663Z,11.73
2022-09-27T15:24:41.884Z,11.71
2022-09-27T15:27:31.435Z,11.63
2022-09-27T15:30:29.512Z,11.73
2022-09-27T15:33:21.388Z,11.72
2022-09-27T15:36:10.925Z,11.59
2022-09-27T15:39:09.044Z,11.42
2022-09-27T15:42:12.538Z,11.24
2022-09-27T15:45:01.781Z,11.19
2022-09-27T15:47:51.214Z,11.15
2022-09-27T15:50:40.983Z,11.08
2022-09-27T15:53:43.739Z,11.11
2022-09-27T15:56:31.788Z,11.02
2022-09-27T15:59:22.427Z,10.56
2022-09-27T16:02:17.440Z,10.28
2022-09-27T16:05:06.106Z,9.86
2022-09-27T16:07:54.352Z,9.89
2022-09-27T16:10:45.226Z,9.96
2022-09-27T16:13:33.540Z,10.09
2022-09-27T16:16:23.165Z,10.08
2022-09-27T16:19:12.517Z,9.89
2022-09-27T16:22:03.369Z,9.88
2022-09-27T16:24:51.261Z,9.77
2022-09-27T16:27:39.270Z,9.82
2022-09-27T16:30:29.767Z,9.83
2022-09-27T16:33:17.848Z,10.00
2022-09-27T16:36:14.258Z,9.96
2022-09-27T16:39:04.835Z,9.98
2022-09-27T16:41:53.152Z,10.12
2022-09-27T16:44:41.046Z,10.16
2022-09-27T16:47:29.125Z,10.21
2022-09-27T16:50:35.049Z,10.20
2022-09-27T16:53:24.382Z,10.21
2022-09-27T16:56:12.682Z,10.06
2022-09-27T16:59:02.878Z,10.02
2022-09-27T17:01:50.864Z,10.00
2022-09-27T17:04:38.766Z,9.96
2022-09-27T17:07:26.659Z,9.89
2022-09-27T17:10:17.098Z,9.80
2022-09-27T17:13:04.967Z,9.72
2022-09-27T17:15:53.334Z,9.72
2022-09-27T17:18:41.628Z,9.59
2022-09-27T17:21:30.401Z,9.60
2022-09-27T17:24:20.279Z,9.55
2022-09-27T17:27:09.544Z,9.60
2022-09-27T17:29:57.423Z,9.63
2022-09-27T17:32:45.372Z,9.69
2022-09-27T17:35:33.360Z,9.71
2022-09-27T17:38:21.534Z,9.63
2022-09-27T17:41:11.379Z,9.66
2022-09-27T17:44:02.242Z,9.66
2022-09-27T17:47:11.300Z,9.74
2022-09-27T17:50:16.788Z,9.74
2022-09-27T17:53:04.653Z,9.69
2022-09-27T17:55:53.886Z,9.71
2022-09-27T17:58:46.744Z,9.72
2022-09-27T18:01:38.168Z,9.64
2022-09-27T18:04:26.179Z,9.60
2022-09-27T18:07:14.048Z,9.49
2022-09-27T18:10:01.944Z,9.49
2022-09-27T18:12:49.902Z,9.39
2022-09-27T18:15:37.890Z,9.30
2022-09-27T18:18:28.119Z,9.34
2022-09-27T18:21:21.654Z,9.22
2022-09-27T18:24:10.854Z,9.19
2022-09-27T18:26:59.699Z,9.02
2022-09-27T18:29:48.334Z,9.05
2022-09-27T18:32:36.218Z,8.96
2022-09-27T18:35:28.479Z,8.95
2022-09-27T18:38:16.353Z,8.88
2022-09-27T18:41:08.518Z,8.86
2022-09-27T18:43:58.795Z,8.87
2022-09-27T18:46:47.108Z,8.82
2022-09-27T18:49:35.016Z,8.83
2022-09-27T18:52:24.394Z,8.83
2022-09-27T18:55:12.307Z,8.77
2022-09-27T18:58:00.334Z,8.83
2022-09-27T19:00:48.199Z,8.83
2022-09-27T19:03:36.366Z,8.83
2022-09-27T19:06:24.834Z,8.72
2022-09-27T19:09:14.153Z,8.86
2022-09-27T19:12:02.962Z,8.81
2022-09-27T19:14:52.419Z,8.75
2022-09-27T19:17:40.313Z,8.67
2022-09-27T19:20:29.563Z,8.71
2022-09-27T19:23:17.868Z,8.66
2022-09-27T19:26:09.827Z,8.63
2022-09-27T19:28:58.735Z,8.60
2022-09-27T19:31:46.783Z,8.57
2022-09-27T19:34:34.956Z,8.60
2022-09-27T19:37:22.813Z,8.52
2022-09-27T19:40:10.757Z,8.48
2022-09-27T19:43:00.049Z,8.47
2022-09-27T19:45:48.067Z,8.36
2022-09-27T19:48:36.737Z,8.43
2022-09-27T19:51:26.894Z,8.44
2022-09-27T19:54:15.050Z,8.42
2022-09-27T19:57:02.894Z,8.44
2022-09-27T19:59:52.125Z,8.43
2022-09-27T20:02:40.115Z,8.43
2022-09-27T20:05:28.004Z,8.58
2022-09-27T20:08:15.885Z,8.64
2022-09-27T20:11:06.761Z,8.73
2022-09-27T20:13:54.946Z,8.68
2022-09-27T20:16:44.212Z,8.68
2022-09-27T20:19:32.128Z,8.64
2022-09-27T20:22:20.183Z,8.68
2022-09-27T20:25:09.141Z,8.70
2022-09-27T20:27:57.042Z,8.93
2022-09-27T20:30:56.693Z,8.94
2022-09-27T20:33:49.465Z,8.97
2022-09-27T20:36:39.727Z,8.90
2022-09-27T20:39:27.657Z,8.93
2022-09-27T20:42:15.615Z,8.93
2022-09-27T20:45:03.994Z,8.97
2022-09-27T20:47:51.885Z,8.87
2022-09-27T20:50:41.151Z,8.87
2022-09-27T20:53:29.596Z,8.89
2022-09-27T20:56:19.448Z,8.92
2022-09-27T20:59:14.063Z,8.90
2022-09-27T21:02:02.832Z,8.89
2022-09-27T21:04:50.975Z,8.92
2022-09-27T21:07:40.197Z,8.87
2022-09-27T21:10:28.066Z,8.85
2022-09-27T21:13:16.008Z,8.93
2022-09-27T21:16:05.724Z,8.93
2022-09-27T21:18:55.253Z,8.83
2022-09-27T21:21:43.269Z,8.82
2022-09-27T21:24:32.511Z,8.91
2022-09-27T21:27:20.341Z,8.83
2022-09-27T21:30:09.328Z,8.76
2022-09-27T21:32:57.871Z,8.74
2022-09-27T21:35:51.007Z,8.74
2022-09-27T21:38:40.061Z,8.71
2022-09-27T21:41:29.451Z,8.60
2022-09-27T21:44:17.323Z,8.69
2022-09-27T21:47:05.324Z,8.63
2022-09-27T21:49:53.243Z,8.57
2022-09-27T21:52:41.156Z,8.54
2022-09-27T21:55:29.211Z,8.47
2022-09-27T21:58:18.765Z,8.47
2022-09-27T22:01:08.070Z,8.35
2022-09-27T22:03:56.906Z,8.39
2022-09-27T22:06:44.977Z,8.42
2022-09-27T22:09:32.875Z,8.39
2022-09-27T22:12:21.289Z,8.42
2022-09-27T22:15:11.080Z,8.36
2022-09-27T22:18:00.113Z,8.34
2022-09-27T22:20:48.143Z,8.42
2022-09-27T22:23:36.627Z,8.33
2022-09-27T22:26:26.631Z,8.42
2022-09-27T22:29:15.052Z,8.22
2022-09-27T22:32:04.412Z,8.38
2022-09-27T22:34:53.213Z,8.37
2022-09-27T22:37:41.259Z,8.44
2022-09-27T22:40:29.171Z,8.41
2022-09-27T22:43:17.289Z,8.38
2022-09-27T22:46:05.534Z,8.46
2022-09-27T22:48:55.640Z,8.41
2022-09-27T22:51:43.627Z,8.51
2022-09-27T22:54:31.527Z,8.61
2022-09-27T22:57:19.420Z,8.46
2022-09-27T23:00:08.220Z,8.56
2022-09-27T23:02:56.509Z,8.57
2022-09-27T23:05:45.921Z,8.61
2022-09-27T23:08:35.197Z,8.62
2022-09-27T23:11:23.763Z,8.62
2022-09-27T23:14:12.095Z,8.61
2022-09-27T23:17:00.266Z,8.61
2022-09-27T23:19:48.162Z,8.61
2022-09-27T23:22:37.441Z,8.63
2022-09-27T23:25:25.880Z,8.70
2022-09-27T23:28:14.165Z,8.74
2022-09-27T23:31:08.368Z,8.42
2022-09-27T23:33:57.895Z,8.81
2022-09-27T23:36:45.741Z,8.72
2022-09-27T23:39:34.986Z,8.79
2022-09-27T23:42:22.939Z,8.80
2022-09-27T23:45:11.143Z,8.75
2022-09-27T23:47:59.044Z,8.80
2022-09-27T23:50:48.152Z,8.66
2022-09-27T23:53:35.985Z,8.80
2022-09-27T23:56:25.813Z,8.67
2022-09-27T23:59:13.779Z,8.55
